Portada
Imágenes satélite Pronóstico 15 díasClimaPredicción Marítima Ciclones Rayo AeropuertosFAQ Noticias Acerca
El tiempo : Europa África América del Norte América del Sur Asia Australia-Oceanía Otros
Idiomas Contacto

Chichén Itzá, México

latitud: 20-38-30N, longitud: 088-26-58W, altitud: 31 m


METAR: MMCT 201844Z 03005KT 10SM FEW030 33/16 A3002 RMK 8/100 MSGTX MMMD
short-TAF: falta
long-TAF: falta

Hora: 14:32 (19:32 UTC)

Observación

El informe se hizo hace 48 minutos, a las 18:44 UTC  
Viento 05 kt del norte-noreste
Temperatura 33°C
Humedad 36%
Presión 1017 hPa
Visibilidad 16.1 km
Escasas nubes a una altura de 3000 ft

Cambiar las unidades
La información que se ofrece en estas páginas está sujeta a una cláusula de exención de responsabilidad
El tiempo : Europa África América del Norte América del Sur Asia Australia-Oceanía Otros
Imágenes satélite Pronóstico 15 díasClimaPredicción Marítima Ciclones Rayo AeropuertosFAQ Idiomas Contacto Noticias Acerca